Terminal Aerodrome Forecast
Issued by NWS

Home | Current Version | Previous Version | Text Only | Print | Product List | Glossary On
Versions: 1 2 3 4 5 6 7 8 9 10 11 12 13 14 15 16 17 18 19
570
FTUS43 KSGF 211720
TAFJLN
TAF
KJLN 211720Z 2118/2218 18021G34KT P6SM SCT030
      TEMPO 2118/2121 BKN030
     FM212100 20019G32KT P6SM BKN035
     FM220000 18015G24KT 6SM -SHRA VCTS OVC025CB
     FM220500 21013KT P6SM SCT100
     FM221100 24013G24KT P6SM BKN025=

USA.gov is the U.S. government's official web portal to all federal, state and local government web resources and services.